createdAt,value
2022-11-16T00:02:14.709Z,8.91
2022-11-16T00:04:44.125Z,8.92
2022-11-16T00:07:13.328Z,8.92
2022-11-16T00:09:42.451Z,8.92
2022-11-16T00:12:13.104Z,8.89
2022-11-16T00:14:42.157Z,8.91
2022-11-16T00:17:10.964Z,8.92
2022-11-16T00:19:40.042Z,8.91
2022-11-16T00:22:09.194Z,8.85
2022-11-16T00:24:38.287Z,8.77
2022-11-16T00:27:07.060Z,8.72
2022-11-16T00:29:36.348Z,8.67
2022-11-16T00:32:05.286Z,8.68
2022-11-16T00:34:34.415Z,8.70
2022-11-16T00:37:03.333Z,8.74
2022-11-16T00:39:32.390Z,8.79
2022-11-16T00:42:01.475Z,8.82
2022-11-16T00:44:30.608Z,8.75
2022-11-16T00:46:59.755Z,8.67
2022-11-16T00:49:29.123Z,8.62
2022-11-16T00:51:58.272Z,8.57
2022-11-16T00:54:27.025Z,8.48
2022-11-16T00:56:56.646Z,8.41
2022-11-16T00:59:25.932Z,8.36
2022-11-16T01:01:58.789Z,8.31
2022-11-16T01:04:28.027Z,8.22
2022-11-16T01:06:57.032Z,8.13
2022-11-16T01:09:27.548Z,8.06
2022-11-16T01:12:12.898Z,7.97
2022-11-16T01:14:45.263Z,7.90
2022-11-16T01:17:15.396Z,7.82
2022-11-16T01:19:44.419Z,7.77
2022-11-16T01:22:13.399Z,7.76
2022-11-16T01:24:43.071Z,7.77
2022-11-16T01:27:11.967Z,7.79
2022-11-16T01:29:44.607Z,7.77
2022-11-16T01:32:13.448Z,7.80
2022-11-16T01:34:43.031Z,7.84
2022-11-16T01:37:25.962Z,7.86
2022-11-16T01:39:55.412Z,7.83
2022-11-16T01:42:28.257Z,7.78
2022-11-16T01:45:16.653Z,7.75
2022-11-16T01:47:46.832Z,7.74
2022-11-16T01:50:19.511Z,7.79
2022-11-16T01:53:00.355Z,7.85
2022-11-16T01:55:36.458Z,7.89
2022-11-16T01:58:28.680Z,7.96
2022-11-16T02:01:02.744Z,8.02
2022-11-16T02:03:40.324Z,8.12
2022-11-16T02:06:16.837Z,8.23
2022-11-16T02:09:16.164Z,8.30
2022-11-16T02:12:25.582Z,8.31
2022-11-16T02:15:08.648Z,8.29
2022-11-16T02:17:52.304Z,8.25
2022-11-16T02:20:57.092Z,8.27
2022-11-16T02:23:47.910Z,8.32
2022-11-16T02:26:23.345Z,8.35
2022-11-16T02:29:37.190Z,8.32
2022-11-16T02:32:24.624Z,8.31
2022-11-16T02:34:56.820Z,8.19
2022-11-16T02:37:30.933Z,8.06
2022-11-16T02:40:03.543Z,7.94
2022-11-16T02:42:40.749Z,7.88
2022-11-16T02:45:12.780Z,7.89
2022-11-16T02:47:43.672Z,7.90
2022-11-16T02:50:19.086Z,7.91
2022-11-16T02:52:48.420Z,7.96
2022-11-16T02:55:17.605Z,7.99
2022-11-16T02:57:58.999Z,7.97
2022-11-16T03:00:43.853Z,7.96
2022-11-16T03:03:30.714Z,7.96
2022-11-16T03:06:09.052Z,7.97
2022-11-16T03:08:45.713Z,7.99
2022-11-16T03:11:33.803Z,8.03
2022-11-16T03:14:06.892Z,8.08
2022-11-16T03:16:41.243Z,8.18
2022-11-16T03:19:14.833Z,8.20
2022-11-16T03:21:55.600Z,8.11
2022-11-16T03:24:26.133Z,8.01
2022-11-16T03:27:00.500Z,7.93
2022-11-16T03:29:34.662Z,7.86
2022-11-16T03:32:22.694Z,7.85
2022-11-16T03:35:04.831Z,7.85
2022-11-16T03:37:35.877Z,7.90
2022-11-16T03:40:06.579Z,7.97
2022-11-16T03:42:36.967Z,8.03
2022-11-16T03:45:06.099Z,8.10
2022-11-16T03:47:34.629Z,8.16
2022-11-16T03:50:05.547Z,8.15
2022-11-16T03:52:35.310Z,8.11
2022-11-16T03:55:05.499Z,8.06
2022-11-16T03:57:35.950Z,8.06
2022-11-16T04:00:06.925Z,8.10
2022-11-16T04:02:42.151Z,8.17
2022-11-16T04:05:33.232Z,8.16
2022-11-16T04:08:20.978Z,8.06
2022-11-16T04:11:08.851Z,7.96
2022-11-16T04:13:57.132Z,7.90
2022-11-16T04:16:44.978Z,7.89
2022-11-16T04:19:32.868Z,7.85
2022-11-16T04:22:43.434Z,7.86
2022-11-16T04:25:20.069Z,7.84
2022-11-16T04:28:08.752Z,7.80
2022-11-16T04:31:25.982Z,7.80
2022-11-16T04:34:34.209Z,7.80
2022-11-16T04:37:22.803Z,7.73
2022-11-16T04:39:51.466Z,7.67
2022-11-16T04:42:22.638Z,7.62
2022-11-16T04:45:11.704Z,7.58
2022-11-16T04:47:49.469Z,7.48
2022-11-16T04:50:19.802Z,7.39
2022-11-16T04:52:49.697Z,7.36
2022-11-16T04:55:18.534Z,7.36
2022-11-16T04:57:47.885Z,7.37
2022-11-16T05:00:17.413Z,7.39
2022-11-16T05:02:46.199Z,7.38
2022-11-16T05:05:15.403Z,7.35
2022-11-16T05:07:45.230Z,7.35
2022-11-16T05:10:19.604Z,7.36
2022-11-16T05:12:48.196Z,7.40
2022-11-16T05:15:20.032Z,7.40
2022-11-16T05:17:51.490Z,7.40
2022-11-16T05:20:41.530Z,7.42
2022-11-16T05:23:30.879Z,7.42
2022-11-16T05:26:02.732Z,7.45
2022-11-16T05:28:32.239Z,7.45
2022-11-16T05:31:00.930Z,7.40
2022-11-16T05:33:30.466Z,7.35
2022-11-16T05:35:59.671Z,7.33
2022-11-16T05:38:28.207Z,7.34
2022-11-16T05:40:58.465Z,7.39
2022-11-16T05:43:27.748Z,7.45
2022-11-16T05:46:03.107Z,7.42
2022-11-16T05:48:32.363Z,7.33
2022-11-16T05:51:01.836Z,7.29
2022-11-16T05:53:33.080Z,7.29
2022-11-16T05:56:01.803Z,7.27
2022-11-16T05:58:31.046Z,7.26
2022-11-16T06:01:01.759Z,7.22
2022-11-16T06:03:30.982Z,7.20
2022-11-16T06:06:00.011Z,7.20
2022-11-16T06:08:30.566Z,7.22
2022-11-16T06:11:05.699Z,7.25
2022-11-16T06:13:35.063Z,7.19
2022-11-16T06:16:04.049Z,7.13
2022-11-16T06:18:33.297Z,7.13
2022-11-16T06:21:03.242Z,7.11
2022-11-16T06:23:32.743Z,7.11
2022-11-16T06:26:02.090Z,7.08
2022-11-16T06:28:32.869Z,7.04
2022-11-16T06:31:02.190Z,7.08
2022-11-16T06:33:33.807Z,7.07
2022-11-16T06:36:05.003Z,7.08
2022-11-16T06:38:34.045Z,7.12
2022-11-16T06:41:03.729Z,7.16
2022-11-16T06:43:33.405Z,7.12
2022-11-16T06:46:01.948Z,7.09
2022-11-16T06:48:31.356Z,7.08
2022-11-16T06:51:00.612Z,7.10
2022-11-16T06:53:30.934Z,7.10
2022-11-16T06:56:06.565Z,7.10
2022-11-16T06:58:42.709Z,7.11
2022-11-16T07:01:12.916Z,7.11
2022-11-16T07:03:43.076Z,7.19
2022-11-16T07:06:13.814Z,7.24
2022-11-16T07:08:44.562Z,7.27
2022-11-16T07:11:13.522Z,7.25
2022-11-16T07:13:42.227Z,7.23
2022-11-16T07:16:12.764Z,7.23
2022-11-16T07:18:46.373Z,7.23
2022-11-16T07:21:17.124Z,7.27
2022-11-16T07:23:46.203Z,7.29
2022-11-16T07:26:19.216Z,7.32
2022-11-16T07:29:11.099Z,7.37
2022-11-16T07:31:43.234Z,7.39
2022-11-16T07:34:28.000Z,7.40
2022-11-16T07:37:07.476Z,7.39
2022-11-16T07:39:36.225Z,7.40
2022-11-16T07:42:11.893Z,7.43
2022-11-16T07:45:07.715Z,7.43
2022-11-16T07:47:40.680Z,7.47
2022-11-16T07:50:12.393Z,7.46
2022-11-16T07:52:40.987Z,7.51
2022-11-16T07:55:18.283Z,7.53
2022-11-16T07:57:52.960Z,7.53
2022-11-16T08:00:25.068Z,7.54
2022-11-16T08:02:58.886Z,7.58
2022-11-16T08:05:28.276Z,7.64
2022-11-16T08:07:56.818Z,7.65
2022-11-16T08:10:26.450Z,7.65
2022-11-16T08:12:56.304Z,7.65
2022-11-16T08:15:25.994Z,7.63
2022-11-16T08:17:54.873Z,7.65
2022-11-16T08:20:23.842Z,7.68
2022-11-16T08:22:53.266Z,7.62
2022-11-16T08:25:21.814Z,7.56
2022-11-16T08:27:51.056Z,7.51
2022-11-16T08:30:20.623Z,7.48
2022-11-16T08:32:50.068Z,7.50
2022-11-16T08:35:19.594Z,7.47
2022-11-16T08:37:49.413Z,7.40
2022-11-16T08:40:18.151Z,7.40
2022-11-16T08:42:47.141Z,7.43
2022-11-16T08:45:18.083Z,7.42
2022-11-16T08:47:47.132Z,7.38
2022-11-16T08:50:17.689Z,7.34
2022-11-16T08:52:46.720Z,7.30
2022-11-16T08:59:05.066Z,7.21
2022-11-16T09:01:39.923Z,7.19
2022-11-16T09:04:08.619Z,7.19
2022-11-16T09:06:37.298Z,7.16
2022-11-16T09:09:06.138Z,7.12
2022-11-16T09:11:34.769Z,7.07
2022-11-16T09:14:03.526Z,7.05
2022-11-16T09:16:32.286Z,7.02
2022-11-16T09:19:01.538Z,6.96
2022-11-16T09:21:31.158Z,6.91
2022-11-16T09:24:00.048Z,6.89
2022-11-16T09:26:28.899Z,6.86
2022-11-16T09:29:00.048Z,6.86
2022-11-16T09:31:31.976Z,6.85
2022-11-16T09:34:00.820Z,6.90
2022-11-16T09:36:30.223Z,6.91
2022-11-16T09:39:41.966Z,6.88
2022-11-16T09:42:14.140Z,6.90
2022-11-16T09:45:12.188Z,6.91
2022-11-16T09:47:59.682Z,6.91
2022-11-16T09:50:47.869Z,6.93
2022-11-16T09:53:38.543Z,6.96
2022-11-16T09:56:28.992Z,6.99
2022-11-16T09:59:15.029Z,6.96
2022-11-16T10:01:58.952Z,6.91
2022-11-16T10:04:58.787Z,6.91
2022-11-16T10:07:37.711Z,6.92
2022-11-16T10:10:08.937Z,6.89
2022-11-16T10:12:52.392Z,6.88
2022-11-16T10:16:00.645Z,6.90
2022-11-16T10:18:49.131Z,6.92
2022-11-16T10:21:33.362Z,6.98
2022-11-16T10:24:43.650Z,7.05
2022-11-16T10:27:21.959Z,7.10
2022-11-16T10:30:09.706Z,7.10
2022-11-16T10:32:50.721Z,7.11
2022-11-16T10:35:43.327Z,7.12
2022-11-16T10:38:15.436Z,7.14
2022-11-16T10:40:50.235Z,7.15
2022-11-16T10:43:23.844Z,7.14
2022-11-16T10:46:14.592Z,7.11
2022-11-16T10:49:04.784Z,7.07
2022-11-16T10:51:33.737Z,7.05
2022-11-16T10:54:03.577Z,7.06
2022-11-16T10:56:37.989Z,7.04
2022-11-16T10:59:10.528Z,7.03
2022-11-16T11:01:48.014Z,7.05
2022-11-16T11:04:26.014Z,7.13
2022-11-16T11:06:58.544Z,7.17
2022-11-16T11:09:30.856Z,7.17
2022-11-16T11:12:37.016Z,7.23
2022-11-16T11:15:11.900Z,7.26
2022-11-16T11:17:43.604Z,7.26
2022-11-16T11:20:15.492Z,7.27
2022-11-16T11:22:52.567Z,7.26
2022-11-16T11:25:39.164Z,7.28
2022-11-16T11:28:17.390Z,7.29
2022-11-16T11:31:05.326Z,7.30
2022-11-16T11:33:42.803Z,7.30
2022-11-16T11:36:21.930Z,7.30
2022-11-16T11:39:06.612Z,7.32
2022-11-16T11:41:40.619Z,7.33
2022-11-16T11:44:18.483Z,7.32
2022-11-16T11:47:50.492Z,7.28
2022-11-16T11:50:02.230Z,7.28
2022-11-16T11:52:42.721Z,7.24
2022-11-16T11:55:17.238Z,7.25
2022-11-16T11:57:50.320Z,7.29
2022-11-16T12:00:19.276Z,7.33
2022-11-16T12:03:15.708Z,7.37
2022-11-16T12:05:57.930Z,7.39
2022-11-16T12:08:57.530Z,7.39
2022-11-16T12:11:46.038Z,7.39
2022-11-16T12:14:33.562Z,7.39
2022-11-16T12:17:23.564Z,7.35
2022-11-16T12:20:03.697Z,7.32
2022-11-16T12:22:35.022Z,7.31
2022-11-16T12:25:25.767Z,7.33
2022-11-16T12:28:04.541Z,7.33
2022-11-16T12:30:39.277Z,7.32
2022-11-16T12:33:30.243Z,7.31
2022-11-16T12:36:08.668Z,7.30
2022-11-16T12:39:07.107Z,7.29
2022-11-16T12:41:42.815Z,7.30
2022-11-16T12:44:15.035Z,7.31
2022-11-16T12:47:08.559Z,7.33
2022-11-16T12:49:49.753Z,7.34
2022-11-16T12:52:18.684Z,7.28
2022-11-16T12:55:26.419Z,7.24
2022-11-16T12:58:14.742Z,7.22
2022-11-16T13:01:10.510Z,7.17
2022-11-16T13:03:49.346Z,7.18
2022-11-16T13:06:30.156Z,7.17
2022-11-16T13:09:10.962Z,7.18
2022-11-16T13:11:47.535Z,7.17
2022-11-16T13:14:25.428Z,7.15
2022-11-16T13:16:55.074Z,7.15
2022-11-16T13:19:28.952Z,7.13
2022-11-16T13:22:29.247Z,7.09
2022-11-16T13:25:27.749Z,7.06
2022-11-16T13:28:16.944Z,7.03
2022-11-16T13:31:02.117Z,7.03
2022-11-16T13:33:47.761Z,7.05
2022-11-16T13:36:39.670Z,7.09
2022-11-16T13:39:08.833Z,7.11
2022-11-16T13:41:39.754Z,7.08
2022-11-16T13:44:21.013Z,7.02
2022-11-16T13:47:27.909Z,6.99
2022-11-16T13:50:00.005Z,7.01
2022-11-16T13:53:36.505Z,7.01
2022-11-16T13:55:43.425Z,6.93
2022-11-16T13:58:21.731Z,6.84
2022-11-16T14:01:11.350Z,6.81
2022-11-16T14:03:42.534Z,6.80
2022-11-16T14:06:22.835Z,6.78
2022-11-16T14:09:01.487Z,6.77
2022-11-16T14:11:40.145Z,6.71
2022-11-16T14:14:33.587Z,6.66
2022-11-16T14:17:02.321Z,6.64
2022-11-16T14:19:44.651Z,6.65
2022-11-16T14:22:42.617Z,6.66
2022-11-16T14:25:42.244Z,6.60
2022-11-16T14:28:25.827Z,6.54
2022-11-16T14:31:15.854Z,6.51
2022-11-16T14:33:51.573Z,6.48
2022-11-16T14:36:37.832Z,6.43
2022-11-16T14:39:16.091Z,6.37
2022-11-16T14:41:46.771Z,6.36
2022-11-16T14:44:22.162Z,6.35
2022-11-16T14:46:51.860Z,6.33
2022-11-16T14:49:21.939Z,6.31
2022-11-16T14:51:59.964Z,6.26
2022-11-16T14:54:43.008Z,6.24
2022-11-16T14:57:40.379Z,6.22
2022-11-16T15:00:25.221Z,6.20
2022-11-16T15:03:02.102Z,6.17
2022-11-16T15:05:37.085Z,6.16
2022-11-16T15:08:18.234Z,6.17
2022-11-16T15:10:52.429Z,6.17
2022-11-16T15:13:24.233Z,6.18
2022-11-16T15:16:17.151Z,6.17
2022-11-16T15:19:02.844Z,6.13
2022-11-16T15:21:31.779Z,6.07
2022-11-16T15:24:29.799Z,6.04
2022-11-16T15:26:49.552Z,6.10
2022-11-16T15:29:20.227Z,6.13
2022-11-16T15:31:51.280Z,6.12
2022-11-16T15:34:21.028Z,6.13
2022-11-16T15:36:50.491Z,6.12
2022-11-16T15:39:22.547Z,6.12
2022-11-16T15:41:52.471Z,6.07
2022-11-16T15:44:23.769Z,6.06
2022-11-16T15:46:55.933Z,6.08
2022-11-16T15:49:38.817Z,6.06
2022-11-16T15:52:07.668Z,6.07
2022-11-16T15:54:55.612Z,6.04
2022-11-16T15:57:31.241Z,6.07
2022-11-16T16:00:05.505Z,6.09
2022-11-16T16:02:35.890Z,6.14
2022-11-16T16:05:07.317Z,6.16
2022-11-16T16:07:41.979Z,6.19
2022-11-16T16:10:20.464Z,6.20
2022-11-16T16:13:02.214Z,6.19
2022-11-16T16:15:37.032Z,6.19
2022-11-16T16:18:34.917Z,6.18
2022-11-16T16:21:03.818Z,6.20
2022-11-16T16:23:35.313Z,6.14
2022-11-16T16:26:05.793Z,6.07
2022-11-16T16:28:36.938Z,6.06
2022-11-16T16:31:08.232Z,6.07
2022-11-16T16:33:37.895Z,6.05
2022-11-16T16:36:07.995Z,6.00
2022-11-16T16:38:38.821Z,5.95
2022-11-16T16:41:07.974Z,6.00
2022-11-16T16:43:39.010Z,6.00
2022-11-16T16:46:12.252Z,6.02
2022-11-16T16:48:44.666Z,6.01
2022-11-16T16:51:14.076Z,6.05
2022-11-16T16:53:43.929Z,6.10
2022-11-16T16:56:17.176Z,6.06
2022-11-16T16:58:46.510Z,6.01
2022-11-16T17:01:15.469Z,6.00
2022-11-16T17:03:47.320Z,5.96
2022-11-16T17:06:16.187Z,5.90
2022-11-16T17:08:45.108Z,5.84
2022-11-16T17:11:17.610Z,5.84
2022-11-16T17:13:47.081Z,5.93
2022-11-16T17:16:23.872Z,5.98
2022-11-16T17:18:57.545Z,6.03
2022-11-16T17:21:28.015Z,6.08
2022-11-16T17:23:58.978Z,6.10
2022-11-16T17:26:29.744Z,6.05
2022-11-16T17:28:59.019Z,5.97
2022-11-16T17:31:29.936Z,5.93
2022-11-16T17:33:59.164Z,5.90
2022-11-16T17:36:28.995Z,5.88
2022-11-16T17:39:02.493Z,5.85
2022-11-16T17:41:31.683Z,5.82
2022-11-16T17:44:00.764Z,5.77
2022-11-16T17:46:30.710Z,5.73
2022-11-16T17:49:00.163Z,5.69
2022-11-16T17:51:30.588Z,5.62
2022-11-16T17:54:01.587Z,5.62
2022-11-16T17:56:33.080Z,5.66
2022-11-16T17:59:02.215Z,5.63
2022-11-16T18:01:33.562Z,5.65
2022-11-16T18:04:14.907Z,5.63
2022-11-16T18:07:14.323Z,5.56
2022-11-16T18:10:05.264Z,5.51
2022-11-16T18:13:06.024Z,5.52
2022-11-16T18:16:11.945Z,5.54
2022-11-16T18:25:23.776Z,5.52
2022-11-16T18:28:14.935Z,5.48
2022-11-16T18:31:06.995Z,5.55
2022-11-16T18:34:03.126Z,5.55
2022-11-16T18:37:02.195Z,5.48
2022-11-16T18:40:00.411Z,5.48
2022-11-16T18:46:14.499Z,5.53
2022-11-16T18:48:49.205Z,5.47
2022-11-16T18:51:22.250Z,5.42
2022-11-16T18:53:51.662Z,5.42
2022-11-16T18:56:21.497Z,5.44
2022-11-16T18:58:51.999Z,5.43
2022-11-16T19:01:25.677Z,5.37
2022-11-16T19:03:56.336Z,5.32
2022-11-16T19:06:31.386Z,5.26
2022-11-16T19:09:02.415Z,5.26
2022-11-16T19:11:32.654Z,5.28
2022-11-16T19:14:02.177Z,5.26
2022-11-16T19:16:34.355Z,5.28
2022-11-16T19:19:07.288Z,5.30
2022-11-16T19:21:39.292Z,5.22
2022-11-16T19:24:12.688Z,5.18
2022-11-16T19:26:44.706Z,5.20
2022-11-16T19:29:17.023Z,5.18
2022-11-16T19:31:48.555Z,5.10
2022-11-16T19:34:17.817Z,5.10
2022-11-16T19:36:50.961Z,5.05
2022-11-16T19:39:25.405Z,5.00
2022-11-16T19:41:54.685Z,4.97
2022-11-16T19:44:24.466Z,4.95
2022-11-16T19:46:55.201Z,4.96
2022-11-16T19:49:26.325Z,5.00
2022-11-16T19:51:56.802Z,4.99
2022-11-16T19:57:09.333Z,4.86
2022-11-16T19:59:39.153Z,4.78
2022-11-16T20:02:12.022Z,4.75
2022-11-16T20:04:42.698Z,4.73
2022-11-16T20:07:13.712Z,4.76
2022-11-16T20:09:50.544Z,4.78
2022-11-16T20:12:23.940Z,4.83
2022-11-16T20:14:54.913Z,4.89
2022-11-16T20:20:14.005Z,4.82
2022-11-16T20:22:46.212Z,4.88
2022-11-16T20:25:16.392Z,4.95
2022-11-16T20:27:49.750Z,4.94
2022-11-16T20:30:18.958Z,4.92
2022-11-16T20:32:47.907Z,4.93
2022-11-16T20:35:20.049Z,4.92
2022-11-16T20:37:49.507Z,4.94
2022-11-16T20:40:18.245Z,4.97
2022-11-16T20:42:50.259Z,5.01
2022-11-16T20:45:19.426Z,4.95
2022-11-16T20:47:50.559Z,4.84
2022-11-16T20:50:25.186Z,4.78
2022-11-16T20:52:54.549Z,4.79
2022-11-16T20:55:24.901Z,4.73
2022-11-16T20:57:57.225Z,4.69
2022-11-16T21:00:26.069Z,4.75
2022-11-16T21:02:58.343Z,4.80
2022-11-16T21:05:27.605Z,4.76
2022-11-16T21:08:02.845Z,4.74
2022-11-16T21:10:41.075Z,4.76
2022-11-16T21:13:37.501Z,4.73
2022-11-16T21:16:15.168Z,4.64
2022-11-16T21:18:48.210Z,4.63
2022-11-16T21:21:21.835Z,4.63
2022-11-16T21:23:54.611Z,4.63
2022-11-16T21:29:22.481Z,4.63
2022-11-16T21:31:51.436Z,4.55
2022-11-16T21:34:21.651Z,4.49
2022-11-16T21:36:52.902Z,4.48
2022-11-16T21:39:22.106Z,4.47
2022-11-16T21:41:51.263Z,4.47
2022-11-16T21:44:21.528Z,4.45
2022-11-16T21:46:53.057Z,4.40
2022-11-16T21:49:21.991Z,4.40
2022-11-16T21:51:52.603Z,4.41
2022-11-16T21:54:22.572Z,4.43
2022-11-16T21:56:51.419Z,4.44
2022-11-16T21:59:21.281Z,4.43
2022-11-16T22:02:04.540Z,4.43
2022-11-16T22:04:52.282Z,4.48
2022-11-16T22:07:33.448Z,4.53
2022-11-16T22:10:07.347Z,4.53
2022-11-16T22:12:37.267Z,4.51
2022-11-16T22:15:08.097Z,4.51
2022-11-16T22:17:37.350Z,4.52
2022-11-16T22:20:06.830Z,4.52
2022-11-16T22:22:36.113Z,4.55
2022-11-16T22:25:05.170Z,4.55
2022-11-16T22:27:52.129Z,4.56
2022-11-16T22:30:22.787Z,4.59
2022-11-16T22:32:51.762Z,4.62
2022-11-16T22:35:20.369Z,4.55
2022-11-16T22:37:49.392Z,4.46
2022-11-16T22:40:18.353Z,4.39
2022-11-16T22:42:46.915Z,4.35
2022-11-16T22:45:16.103Z,4.31
2022-11-16T22:47:44.972Z,4.30
2022-11-16T22:50:13.583Z,4.32
2022-11-16T22:52:42.292Z,4.39
2022-11-16T22:55:11.320Z,4.45
2022-11-16T22:57:39.777Z,4.46
2022-11-16T23:00:10.399Z,4.45
2022-11-16T23:02:39.242Z,4.40
2022-11-16T23:05:08.271Z,4.35
2022-11-16T23:07:37.165Z,4.34
2022-11-16T23:10:06.803Z,4.33
2022-11-16T23:12:54.814Z,4.31
2022-11-16T23:15:42.957Z,4.30
2022-11-16T23:18:12.317Z,4.29
2022-11-16T23:20:59.735Z,4.29
2022-11-16T23:23:47.407Z,4.28
2022-11-16T23:26:43.233Z,4.30
2022-11-16T23:29:12.546Z,4.29
2022-11-16T23:31:41.583Z,4.27
2022-11-16T23:34:10.103Z,4.27
2022-11-16T23:36:38.983Z,4.27
2022-11-16T23:39:08.821Z,4.25
2022-11-16T23:41:56.466Z,4.22
2022-11-16T23:44:25.635Z,4.17
2022-11-16T23:46:54.310Z,4.12
2022-11-16T23:49:23.334Z,4.13
2022-11-16T23:51:52.230Z,4.14
2022-11-16T23:54:21.139Z,4.11
2022-11-16T23:56:50.026Z,4.09
2022-11-16T23:59:18.883Z,4.10
